• Join FlightAware (Why Join?)
  • Login
  • US Flag 
08:59PM EDT


 

Airport Tracker/Info


-or-


 

Live Flight TrackerFlight Track Log ✈ DAL6234 ✈ 13-Jul-2013 ✈ KLGA - KSYR

Flight Track Log - Related Links

Times and Time Zones

All times are in EDT time to prevent confusion due to time zone crossing. See the DAL6234 flight status page for this flight to view local times or setup timezone preferences in your user account.

Time Position Orientation Groundspeed Altitude Reporting Facility
EDT Latitude Longitude Course Direction KTS MPH feet Rate Location/Type
06:24PM 40.7500 -73.7833 313° West 207 238 3,200  Level New York TRACON
06:25PM 40.8000 -73.7500 27° Northeast 256 295 5,400 2,520 Climbing New York TRACON
06:26PM 40.8500 -73.8167 315° West 275 316 8,000 2,280 Climbing New York TRACON
06:27PM 40.9000 -73.9000 308° West 292 336 10,000 1,860 Climbing New York TRACON
06:28PM 40.9667 -74.0000 311° West 346 398 11,800 1,920 Climbing New York TRACON
06:30PM 41.0960 -74.3728 313° West  Level FlightAware Approximate
06:30PM 41.0583 -74.1778 304° West 363 418 15,100  Level New York Center
06:31PM 41.1031 -74.2872 298° West 375 432 16,000 600 Climbing New York Center
06:32PM 41.1653 -74.4311 300° West 398 458 16,300 840 Climbing New York Center
06:33PM 41.2158 -74.5469 300° West 409 471 17,700 1,200 Climbing New York Center
06:34PM 41.2825 -74.6694 306° West 414 476 18,800 1,380 Climbing New York Center
06:35PM 41.3658 -74.7986 311° West 419 482 20,500 1,500 Climbing New York Center
06:36PM 41.4386 -74.9192 309° West 419 482 21,800 720 Climbing New York Center
06:37PM 41.5175 -75.0406 311° West 424 488 22,000 60 Climbing New York Center
06:38PM 41.5964 -75.1675 310° West 434 499 22,000  Level New York Center
06:39PM 41.6744 -75.3003 308° West 439 505 22,000  Level New York Center
06:40PM 41.7506 -75.4361 307° West 450 518 22,000  Level New York Center
06:41PM 41.8325 -75.5728 309° West 456 525 22,000 -300 Level New York Center
06:42PM 41.9261 -75.6800 320° Northwest 447 514 21,500 -1,380 Descending New York Center
06:43PM 42.0447 -75.7278 343° North 426 490 19,300 -2,100 Descending New York Center
06:44PM 42.1594 -75.7756 343° North 426 490 17,400 -2,100 Descending New York Center
06:45PM 42.2594 -75.8169 343° North 431 496 15,200 -2,220 Descending New York Center
06:46PM 42.3661 -75.8586 344° North 419 482 13,000 -2,280 Descending New York Center
06:47PM 42.4500 -75.8958 342° North 385 443 11,300 -1,200 Descending Boston Center
06:48PM 42.5528 -75.9408 342° North 384 442 11,000 -180 Descending Boston Center
06:49PM 42.6556 -75.9864 342° North 386 444 11,000 -600 Level Boston Center
06:50PM 42.7461 -76.0256 342° North 303 349 9,800 -1,560 Descending Boston Center
06:51PM 42.8264 -76.0611 342° North 289 333 7,900 -1,920 Descending Boston Center
06:52PM 42.8958 -76.1078 334° Northwest 276 318 6,000 -1,740 Descending Boston Center
06:53PM 42.9519 -76.1764 318° Northwest 271 312 4,400 -1,500 Descending Boston Center
06:54PM 43.0100 -76.2425 320° Northwest 261 300 3,000 -1,140 Descending Boston Center
06:55PM 43.0714 -76.2775 337° Northwest 238 274 2,200 -540 Descending Boston Center
06:56PM 43.1061 -76.2428 36° Northeast 177 204 2,000 -480 Descending Boston Center
06:57PM 43.1078 -76.1858 88° East 135 155 1,300 -720 Descending Boston Center